createdAt,value
2018-03-16T00:01:58.310Z,20.30
2018-03-16T00:04:26.567Z,21.20
2018-03-16T00:06:54.093Z,23.47
2018-03-16T00:09:21.605Z,18.37
2018-03-16T00:11:49.879Z,21.50
2018-03-16T00:14:17.377Z,22.00
2018-03-16T00:16:44.903Z,23.80
2018-03-16T00:19:14.099Z,22.77
2018-03-16T00:21:41.609Z,20.57
2018-03-16T00:24:09.119Z,22.70
2018-03-16T00:26:38.391Z,28.87
2018-03-16T00:29:05.884Z,22.42
2018-03-16T00:31:33.407Z,21.48
2018-03-16T00:34:00.881Z,22.00
2018-03-16T00:36:28.448Z,22.30
2018-03-16T00:38:56.044Z,20.27
2018-03-16T00:41:23.543Z,17.30
2018-03-16T00:43:51.839Z,19.58
2018-03-16T00:46:19.389Z,24.50
2018-03-16T00:48:46.887Z,22.47
2018-03-16T00:51:14.403Z,24.35
2018-03-16T00:53:41.993Z,19.87
2018-03-16T00:56:11.191Z,19.90
2018-03-16T00:58:38.715Z,22.43
2018-03-16T01:01:06.201Z,21.67
2018-03-16T01:03:34.450Z,22.07
2018-03-16T01:06:01.972Z,35.80
2018-03-16T01:08:33.711Z,23.20
2018-03-16T01:11:01.199Z,25.40
2018-03-16T01:13:29.354Z,20.00
2018-03-16T01:15:56.842Z,22.48
2018-03-16T01:18:25.279Z,22.25
2018-03-16T01:20:52.778Z,23.83
2018-03-16T01:23:23.374Z,22.97
2018-03-16T01:25:50.874Z,19.33
2018-03-16T01:28:18.387Z,19.83
2018-03-16T01:30:46.664Z,20.53
2018-03-16T01:33:15.355Z,20.10
2018-03-16T01:35:42.854Z,19.13
2018-03-16T01:38:10.349Z,20.20
2018-03-16T01:40:37.868Z,18.63
2018-03-16T01:43:05.394Z,22.25
2018-03-16T01:45:33.427Z,18.40
2018-03-16T01:48:01.774Z,23.77
2018-03-16T01:50:29.298Z,23.17
2018-03-16T01:53:08.484Z,21.73
2018-03-16T01:55:35.998Z,19.93
2018-03-16T01:58:03.971Z,20.02
2018-03-16T02:00:31.503Z,21.53
2018-03-16T02:03:00.215Z,22.15
2018-03-16T02:05:27.734Z,24.40
2018-03-16T02:07:55.235Z,23.13
2018-03-16T02:10:26.583Z,21.97
2018-03-16T02:12:56.142Z,22.55
2018-03-16T02:15:25.187Z,21.27
2018-03-16T02:17:52.688Z,22.40
2018-03-16T02:20:20.223Z,21.03
2018-03-16T02:22:47.715Z,24.37
2018-03-16T02:25:15.271Z,22.47
2018-03-16T02:27:43.866Z,28.87
2018-03-16T02:30:11.402Z,21.70
2018-03-16T02:32:38.895Z,21.45
2018-03-16T02:35:06.418Z,25.23
2018-03-16T02:37:33.957Z,21.30
2018-03-16T02:40:05.038Z,23.40
2018-03-16T02:42:34.583Z,21.27
2018-03-16T02:45:02.328Z,27.50
2018-03-16T02:47:29.865Z,22.67
2018-03-16T02:49:57.924Z,28.87
2018-03-16T02:52:25.937Z,25.50
2018-03-16T02:54:53.436Z,22.85
2018-03-16T02:57:24.885Z,22.65
2018-03-16T02:59:52.824Z,23.17
2018-03-16T03:02:20.344Z,23.17
2018-03-16T03:04:47.864Z,23.63
2018-03-16T03:07:15.383Z,26.35
2018-03-16T03:09:42.895Z,27.67
2018-03-16T03:12:10.442Z,29.17
2018-03-16T03:14:37.968Z,26.97
2018-03-16T03:17:07.296Z,23.97
2018-03-16T03:19:34.799Z,26.62
2018-03-16T03:22:02.355Z,28.57
2018-03-16T03:24:29.883Z,26.77
2018-03-16T03:26:57.364Z,24.47
2018-03-16T03:29:25.727Z,25.60
2018-03-16T03:31:54.192Z,30.13
2018-03-16T03:34:21.753Z,27.48
2018-03-16T03:36:50.922Z,28.12
2018-03-16T03:39:18.955Z,24.60
2018-03-16T03:41:51.147Z,25.53
2018-03-16T03:44:18.645Z,28.40
2018-03-16T03:46:46.930Z,27.13
2018-03-16T03:49:14.453Z,29.95
2018-03-16T03:51:41.943Z,28.92
2018-03-16T03:54:11.751Z,26.87
2018-03-16T03:56:43.246Z,23.07
2018-03-16T03:59:11.587Z,30.60
2018-03-16T04:01:39.686Z,29.30
2018-03-16T04:04:08.555Z,27.27
2018-03-16T04:06:36.595Z,34.17
2018-03-16T04:09:04.104Z,25.93
2018-03-16T04:11:35.701Z,28.07
2018-03-16T04:14:04.939Z,28.90
2018-03-16T04:16:32.486Z,37.73
2018-03-16T04:19:00.803Z,35.00
2018-03-16T04:21:29.007Z,29.60
2018-03-16T04:23:57.386Z,41.90
2018-03-16T04:26:30.256Z,34.95
2018-03-16T04:28:58.283Z,30.97
2018-03-16T04:31:26.767Z,31.08
2018-03-16T04:33:55.088Z,34.45
2018-03-16T04:36:22.652Z,30.83
2018-03-16T04:38:51.544Z,32.05
2018-03-16T04:41:19.077Z,28.15
2018-03-16T04:43:47.975Z,31.63
2018-03-16T04:46:16.002Z,31.63
2018-03-16T04:48:43.523Z,30.27
2018-03-16T04:51:11.019Z,27.13
2018-03-16T04:53:38.576Z,27.48
2018-03-16T04:56:06.692Z,25.73
2018-03-16T04:58:35.342Z,29.42
2018-03-16T05:01:02.861Z,30.33
2018-03-16T05:03:30.738Z,30.75
2018-03-16T05:05:59.183Z,36.53
2018-03-16T05:08:27.476Z,33.93
2018-03-16T05:10:56.726Z,28.53
2018-03-16T05:13:24.241Z,34.90
2018-03-16T05:15:52.911Z,28.70
2018-03-16T05:18:20.399Z,31.67
2018-03-16T05:20:49.627Z,27.37
2018-03-16T05:23:19.433Z,32.70
2018-03-16T05:25:46.922Z,31.67
2018-03-16T05:28:15.960Z,28.45
2018-03-16T05:30:44.401Z,31.05
2018-03-16T05:33:12.635Z,27.87
2018-03-16T05:35:40.775Z,27.87
2018-03-16T05:38:08.314Z,28.87
2018-03-16T05:40:36.156Z,37.83
2018-03-16T05:43:03.703Z,28.50
2018-03-16T05:45:31.301Z,25.92
2018-03-16T05:47:59.425Z,31.37
2018-03-16T05:50:27.733Z,31.00
2018-03-16T05:52:55.301Z,37.10
2018-03-16T05:55:22.833Z,28.47
2018-03-16T05:57:54.239Z,28.67
2018-03-16T06:00:23.333Z,30.43
2018-03-16T06:02:52.533Z,26.13
2018-03-16T06:05:20.888Z,31.67
2018-03-16T06:07:48.453Z,36.23
2018-03-16T06:10:17.664Z,34.20
2018-03-16T06:12:45.956Z,31.07
2018-03-16T06:15:14.215Z,24.57
2018-03-16T06:17:42.223Z,30.60
2018-03-16T06:20:09.753Z,29.13
2018-03-16T06:22:38.036Z,30.07
2018-03-16T06:25:05.554Z,28.83
2018-03-16T06:27:33.053Z,35.63
2018-03-16T06:30:00.606Z,31.75
2018-03-16T06:32:28.744Z,33.83
2018-03-16T06:34:56.275Z,33.13
2018-03-16T06:37:23.911Z,27.73
2018-03-16T06:39:52.122Z,30.30
2018-03-16T06:42:22.235Z,28.00
2018-03-16T06:44:53.188Z,29.00
2018-03-16T06:47:21.990Z,28.95
2018-03-16T06:49:49.523Z,31.97
2018-03-16T06:52:17.287Z,27.70
2018-03-16T06:54:45.634Z,27.10
2018-03-16T06:57:15.525Z,30.63
2018-03-16T06:59:50.196Z,30.40
2018-03-16T07:02:18.173Z,37.00
2018-03-16T07:04:45.679Z,28.93
2018-03-16T07:07:13.510Z,28.50
2018-03-16T07:09:43.031Z,26.23
2018-03-16T07:12:10.587Z,30.13
2018-03-16T07:14:42.827Z,29.93
2018-03-16T07:17:11.124Z,29.17
2018-03-16T07:19:38.656Z,29.65
2018-03-16T07:22:08.125Z,28.52
2018-03-16T07:24:36.234Z,33.77
2018-03-16T07:27:05.977Z,24.23
2018-03-16T07:29:37.470Z,26.70
2018-03-16T07:32:05.059Z,27.83
2018-03-16T07:34:33.469Z,27.57
2018-03-16T07:37:01.810Z,24.20
2018-03-16T07:39:29.331Z,29.20
2018-03-16T07:41:58.764Z,26.63
2018-03-16T07:44:26.303Z,25.33
2018-03-16T07:46:53.812Z,29.80
2018-03-16T07:49:22.540Z,25.08
2018-03-16T07:51:51.735Z,24.63
2018-03-16T07:54:19.970Z,26.50
2018-03-16T07:56:47.512Z,27.00
2018-03-16T07:59:17.587Z,27.67
2018-03-16T08:01:49.127Z,25.47
2018-03-16T08:04:17.213Z,28.27
2018-03-16T08:06:45.213Z,24.87
2018-03-16T08:09:12.727Z,24.37
2018-03-16T08:11:40.258Z,24.55
2018-03-16T08:14:08.520Z,22.40
2018-03-16T08:16:38.127Z,23.34
2018-03-16T08:19:05.635Z,24.30
2018-03-16T08:21:33.612Z,19.83
2018-03-16T08:24:02.965Z,18.67
2018-03-16T08:26:33.192Z,19.80
2018-03-16T08:29:03.065Z,23.95
2018-03-16T08:31:33.840Z,20.65
2018-03-16T08:34:01.449Z,16.73
2018-03-16T08:36:30.794Z,18.80
2018-03-16T08:38:59.094Z,23.03
2018-03-16T08:41:26.932Z,21.17
2018-03-16T08:43:54.430Z,20.50
2018-03-16T08:46:26.073Z,16.77
2018-03-16T08:48:53.606Z,12.77
2018-03-16T08:51:22.559Z,16.33
2018-03-16T08:53:52.269Z,15.43
2018-03-16T08:56:19.836Z,13.57
2018-03-16T08:58:47.378Z,14.40
2018-03-16T09:01:19.054Z,11.35
2018-03-16T09:03:49.894Z,12.43
2018-03-16T09:06:23.015Z,12.08
2018-03-16T09:08:50.544Z,10.67
2018-03-16T09:11:18.818Z,11.37
2018-03-16T09:13:46.376Z,12.57
2018-03-16T09:16:18.324Z,14.57
2018-03-16T09:18:46.619Z,17.05
2018-03-16T09:21:15.559Z,10.60
2018-03-16T09:23:44.245Z,13.18
2018-03-16T09:26:12.575Z,14.47
2018-03-16T09:28:43.738Z,20.97
2018-03-16T09:31:11.995Z,10.00
2018-03-16T09:33:41.194Z,13.63
2018-03-16T09:36:11.355Z,12.12
2018-03-16T09:38:39.879Z,11.10
2018-03-16T09:41:08.160Z,8.57
2018-03-16T09:43:35.811Z,13.53
2018-03-16T09:46:04.079Z,8.40
2018-03-16T09:48:32.773Z,8.80
2018-03-16T09:51:01.111Z,9.80
2018-03-16T09:53:30.883Z,8.90
2018-03-16T09:55:59.939Z,7.20
2018-03-16T09:58:27.794Z,8.63
2018-03-16T10:00:56.195Z,13.68
2018-03-16T10:03:28.532Z,6.05
2018-03-16T10:05:57.218Z,10.20
2018-03-16T10:08:25.690Z,7.12
2018-03-16T10:10:53.199Z,7.90
2018-03-16T10:13:21.025Z,5.07
2018-03-16T10:15:49.991Z,6.08
2018-03-16T10:18:20.472Z,5.30
2018-03-16T10:20:47.976Z,7.70
2018-03-16T10:23:15.897Z,5.73
2018-03-16T10:25:43.940Z,6.75
2018-03-16T10:28:12.279Z,8.00
2018-03-16T10:30:41.369Z,8.60
2018-03-16T10:33:08.889Z,7.93
2018-03-16T10:35:36.435Z,7.33
2018-03-16T10:38:03.954Z,4.97
2018-03-16T10:40:34.076Z,5.00
2018-03-16T10:43:05.425Z,7.70
2018-03-16T10:45:34.968Z,6.82
2018-03-16T10:48:07.028Z,8.03
2018-03-16T10:50:36.580Z,5.37
2018-03-16T10:53:05.156Z,10.93
2018-03-16T10:55:33.780Z,10.90
2018-03-16T10:58:01.871Z,4.27
2018-03-16T11:00:35.132Z,6.30
2018-03-16T11:03:08.045Z,11.83
2018-03-16T11:05:41.063Z,4.72
2018-03-16T11:08:09.514Z,9.20
2018-03-16T11:10:37.027Z,4.43
2018-03-16T11:13:06.019Z,5.00
2018-03-16T11:15:33.550Z,7.87
2018-03-16T11:18:01.250Z,4.10
2018-03-16T11:20:29.193Z,8.77
2018-03-16T11:22:56.759Z,4.87
2018-03-16T11:25:24.951Z,6.75
2018-03-16T11:27:54.603Z,2.90
2018-03-16T11:30:23.076Z,3.90
2018-03-16T11:32:51.365Z,2.10
2018-03-16T11:35:20.462Z,2.83
2018-03-16T11:37:48.023Z,2.53
2018-03-16T11:40:16.844Z,1.93
2018-03-16T11:42:45.161Z,1.35
2018-03-16T11:45:13.204Z,3.15
2018-03-16T11:47:40.732Z,1.83
2018-03-16T11:50:08.252Z,2.10
2018-03-16T11:52:35.791Z,2.15
2018-03-16T11:55:03.346Z,2.13
2018-03-16T11:57:31.420Z,2.03
2018-03-16T12:00:00.919Z,1.90
2018-03-16T12:02:28.980Z,1.93
2018-03-16T12:04:57.461Z,1.30
2018-03-16T12:07:25.529Z,2.35
2018-03-16T12:09:56.892Z,1.77
2018-03-16T12:12:24.438Z,1.73
2018-03-16T12:14:52.014Z,2.33
2018-03-16T12:17:19.508Z,6.18
2018-03-16T12:19:48.196Z,4.00
2018-03-16T12:22:16.955Z,1.42
2018-03-16T12:24:44.856Z,2.92
2018-03-16T12:27:15.103Z,2.25
2018-03-16T12:29:43.561Z,2.40
2018-03-16T12:32:11.071Z,2.13
2018-03-16T12:34:42.602Z,2.43
2018-03-16T12:37:10.763Z,1.50
2018-03-16T12:39:38.868Z,3.50
2018-03-16T12:42:06.369Z,2.10
2018-03-16T12:44:33.939Z,2.20
2018-03-16T12:47:03.088Z,2.50
2018-03-16T12:49:30.597Z,3.22
2018-03-16T12:52:01.488Z,2.08
2018-03-16T12:54:29.164Z,2.00
2018-03-16T12:56:57.973Z,1.95
2018-03-16T12:59:26.334Z,2.33
2018-03-16T13:01:54.225Z,2.53
2018-03-16T13:04:21.788Z,4.40
2018-03-16T13:06:49.330Z,2.50
2018-03-16T13:09:17.366Z,1.90
2018-03-16T13:11:44.853Z,2.47
2018-03-16T13:14:14.025Z,2.20
2018-03-16T13:16:42.454Z,2.80
2018-03-16T13:19:10.014Z,5.47
2018-03-16T13:21:42.692Z,2.40
2018-03-16T13:24:10.229Z,2.70
2018-03-16T13:26:39.371Z,2.45
2018-03-16T13:29:10.735Z,2.20
2018-03-16T13:31:38.250Z,2.10
2018-03-16T13:34:05.743Z,2.27
2018-03-16T13:36:37.867Z,6.80
2018-03-16T13:39:05.389Z,2.77
2018-03-16T13:41:34.553Z,2.48
2018-03-16T13:44:04.645Z,3.50
2018-03-16T13:46:33.283Z,1.60
2018-03-16T13:49:00.816Z,2.07
2018-03-16T13:51:31.301Z,2.70
2018-03-16T13:53:59.621Z,2.22
2018-03-16T13:56:27.146Z,1.70
2018-03-16T13:58:54.668Z,2.57
2018-03-16T14:01:24.659Z,2.15
2018-03-16T14:03:56.898Z,3.43
2018-03-16T14:06:28.295Z,3.03
2018-03-16T14:08:56.855Z,3.17
2018-03-16T14:11:27.771Z,1.90
2018-03-16T14:13:55.568Z,7.43
2018-03-16T14:16:23.964Z,1.73
2018-03-16T14:18:52.236Z,1.70
2018-03-16T14:21:23.460Z,2.90
2018-03-16T14:23:51.835Z,1.40
2018-03-16T14:26:20.234Z,2.38
2018-03-16T14:28:48.684Z,1.95
2018-03-16T14:31:16.180Z,3.33
2018-03-16T14:33:44.669Z,2.40
2018-03-16T14:36:12.151Z,2.95
2018-03-16T14:38:40.930Z,1.95
2018-03-16T14:41:09.921Z,2.26
2018-03-16T14:43:37.445Z,5.57
2018-03-16T14:46:04.970Z,5.43
2018-03-16T14:48:33.339Z,7.47
2018-03-16T14:51:01.417Z,2.30
2018-03-16T14:53:28.903Z,3.67
2018-03-16T14:55:56.442Z,3.17
2018-03-16T14:58:23.940Z,3.43
2018-03-16T15:00:51.891Z,2.43
2018-03-16T15:03:22.272Z,4.43
2018-03-16T15:05:51.381Z,3.25
2018-03-16T15:08:19.273Z,3.30
2018-03-16T15:10:46.835Z,5.07
2018-03-16T15:13:14.365Z,4.83
2018-03-16T15:15:42.771Z,11.93
2018-03-16T15:18:11.067Z,5.37
2018-03-16T15:20:39.593Z,4.20
2018-03-16T15:23:14.525Z,7.20
2018-03-16T15:25:42.805Z,2.65
2018-03-16T15:28:10.250Z,3.47
2018-03-16T15:30:38.334Z,3.22
2018-03-16T15:33:05.822Z,5.30
2018-03-16T15:35:33.338Z,2.83
2018-03-16T15:38:05.608Z,3.58
2018-03-16T15:40:33.706Z,3.42
2018-03-16T15:43:01.987Z,6.63
2018-03-16T15:45:29.802Z,3.57
2018-03-16T15:48:00.964Z,4.20
2018-03-16T15:50:29.297Z,2.90
2018-03-16T15:52:57.429Z,1.52
2018-03-16T15:55:24.901Z,3.20
2018-03-16T15:57:53.626Z,2.35
2018-03-16T16:00:22.408Z,2.70
2018-03-16T16:02:53.241Z,2.78
2018-03-16T16:05:20.724Z,4.27
2018-03-16T16:07:48.199Z,5.35
2018-03-16T16:10:15.693Z,4.97
2018-03-16T16:12:52.040Z,3.70
2018-03-16T16:15:20.590Z,3.50
2018-03-16T16:17:56.505Z,4.83
2018-03-16T16:20:23.961Z,3.33
2018-03-16T16:22:51.502Z,7.17
2018-03-16T16:25:19.880Z,7.93
2018-03-16T16:27:47.354Z,6.20
2018-03-16T16:32:48.002Z,3.50
2018-03-16T16:35:16.062Z,4.47
2018-03-16T16:37:43.546Z,7.05
2018-03-16T16:40:11.785Z,6.50
2018-03-16T16:42:40.331Z,5.40
2018-03-16T16:45:07.869Z,11.98
2018-03-16T16:47:35.349Z,5.57
2018-03-16T16:50:03.274Z,5.03
2018-03-16T16:52:30.734Z,4.83
2018-03-16T16:54:58.802Z,5.93
2018-03-16T16:57:26.182Z,3.85
2018-03-16T16:59:54.045Z,4.83
2018-03-16T17:02:22.113Z,7.00
2018-03-16T17:04:49.691Z,4.37
2018-03-16T17:07:19.735Z,4.40
2018-03-16T17:09:48.566Z,2.95
2018-03-16T17:12:16.031Z,5.90
2018-03-16T17:14:43.494Z,7.27
2018-03-16T17:17:11.084Z,3.67
2018-03-16T17:19:39.009Z,4.43
2018-03-16T17:22:09.721Z,2.97
2018-03-16T17:24:37.757Z,2.17
2018-03-16T17:27:06.777Z,8.00
2018-03-16T17:29:34.251Z,2.55
2018-03-16T17:32:02.769Z,3.96
2018-03-16T17:34:30.381Z,4.45
2018-03-16T17:36:59.547Z,3.45
2018-03-16T17:39:28.388Z,10.08
2018-03-16T17:42:00.233Z,6.57
2018-03-16T17:44:29.162Z,8.88
2018-03-16T17:46:57.129Z,6.17
2018-03-16T17:49:24.601Z,12.30
2018-03-16T17:51:53.374Z,5.76
2018-03-16T17:54:22.367Z,11.27
2018-03-16T17:56:50.936Z,5.76
2018-03-16T17:59:19.909Z,7.50
2018-03-16T18:01:47.401Z,7.70
2018-03-16T18:04:16.449Z,5.60
2018-03-16T18:06:45.143Z,7.30
2018-03-16T18:09:13.133Z,7.63
2018-03-16T18:11:40.598Z,10.00
2018-03-16T18:14:12.450Z,8.23
2018-03-16T18:16:40.213Z,8.33
2018-03-16T18:19:07.673Z,8.77
2018-03-16T18:21:35.139Z,6.80
2018-03-16T18:24:02.613Z,14.63
2018-03-16T18:26:33.077Z,5.30
2018-03-16T18:29:02.994Z,14.10
2018-03-16T19:31:53.384Z,14.15
2018-03-16T19:34:21.002Z,8.95
2018-03-16T19:36:53.521Z,12.90
2018-03-16T19:39:22.941Z,12.30
2018-03-16T19:42:01.085Z,16.73
2018-03-16T19:44:32.505Z,24.83
2018-03-16T19:47:07.871Z,13.63
2018-03-16T19:49:38.487Z,11.70
2018-03-16T19:52:07.857Z,24.13
2018-03-16T19:54:36.001Z,18.30
2018-03-16T19:57:07.678Z,16.20
2018-03-16T19:59:35.798Z,17.10
2018-03-16T20:02:07.497Z,12.00
2018-03-16T20:04:38.269Z,15.40
2018-03-16T20:07:08.457Z,14.02
2018-03-16T20:09:38.246Z,14.77
2018-03-16T20:12:09.594Z,18.58
2018-03-16T20:14:39.021Z,12.90
2018-03-16T20:17:08.615Z,23.60
2018-03-16T20:19:37.208Z,13.88
2018-03-16T20:22:06.589Z,16.57
2018-03-16T20:24:34.460Z,14.13
2018-03-16T20:27:04.036Z,17.95
2018-03-16T20:29:31.945Z,13.45
2018-03-16T20:31:59.966Z,11.63
2018-03-16T20:34:27.984Z,15.77
2018-03-16T20:36:56.650Z,13.10
2018-03-16T20:39:24.133Z,15.73
2018-03-16T20:41:52.918Z,11.27
2018-03-16T20:44:21.431Z,13.05
2018-03-16T20:46:52.199Z,12.13
2018-03-16T20:49:20.443Z,9.73
2018-03-16T20:51:47.921Z,8.67
2018-03-16T20:54:17.069Z,3.42
2018-03-16T20:56:46.887Z,4.65
2018-03-16T20:59:14.444Z,5.70
2018-03-16T21:01:42.438Z,3.27
2018-03-16T21:04:10.689Z,5.05
2018-03-16T21:06:38.526Z,9.50
2018-03-16T21:09:10.725Z,4.87
2018-03-16T21:11:38.445Z,4.93
2018-03-16T21:14:10.713Z,5.30
2018-03-16T21:16:38.462Z,5.57
2018-03-16T21:19:15.570Z,3.55
2018-03-16T21:21:48.449Z,4.16
2018-03-16T21:24:16.757Z,4.90
2018-03-16T21:26:46.408Z,3.87
2018-03-16T21:29:15.419Z,3.97
2018-03-16T21:31:44.582Z,5.23
2018-03-16T21:34:13.516Z,7.63
2018-03-16T21:36:41.414Z,4.53
2018-03-16T21:39:09.740Z,8.63
2018-03-16T21:41:37.242Z,6.50
2018-03-16T21:44:09.986Z,7.87
2018-03-16T21:46:38.414Z,6.15
2018-03-16T21:49:05.874Z,9.00
2018-03-16T21:51:35.869Z,9.46
2018-03-16T21:54:06.349Z,5.85
2018-03-16T21:56:36.329Z,11.15
2018-03-16T21:59:08.769Z,6.07
2018-03-16T22:01:37.176Z,10.27
2018-03-16T22:04:05.565Z,3.47
2018-03-16T22:06:33.744Z,8.17
2018-03-16T22:09:01.363Z,7.75
2018-03-16T22:11:29.837Z,10.32
2018-03-16T22:14:03.262Z,6.90
2018-03-16T22:16:30.813Z,10.07
2018-03-16T22:19:00.700Z,10.80
2018-03-16T22:21:34.740Z,12.27
2018-03-16T22:24:03.869Z,15.23
2018-03-16T22:26:36.136Z,8.12
2018-03-16T22:29:03.798Z,13.60
2018-03-16T22:31:34.881Z,12.70
2018-03-16T22:34:03.193Z,16.60
2018-03-16T22:36:32.161Z,15.77
2018-03-16T22:38:59.891Z,21.77
2018-03-16T22:41:28.805Z,15.17
2018-03-16T22:43:57.297Z,13.05
2018-03-16T22:46:26.417Z,14.30
2018-03-16T22:48:55.409Z,14.83
2018-03-16T22:51:23.601Z,16.60
2018-03-16T22:53:53.489Z,4.20
2018-03-16T22:56:23.822Z,13.78
2018-03-16T22:58:55.986Z,21.70
2018-03-16T23:01:23.826Z,20.23
2018-03-16T23:03:51.785Z,22.00
2018-03-16T23:06:19.846Z,16.70
2018-03-16T23:08:51.015Z,24.60
2018-03-16T23:11:20.338Z,25.33
2018-03-16T23:16:38.157Z,22.58
2018-03-16T23:19:06.542Z,16.40
2018-03-16T23:21:34.107Z,22.13
2018-03-16T23:24:01.570Z,26.77
2018-03-16T23:26:29.019Z,16.23
2018-03-16T23:28:56.505Z,25.17
2018-03-16T23:31:23.966Z,38.38
2018-03-16T23:33:51.554Z,16.17
2018-03-16T23:36:20.701Z,21.17
2018-03-16T23:38:48.151Z,23.53
2018-03-16T23:41:15.631Z,33.80
2018-03-16T23:43:43.077Z,30.05
2018-03-16T23:46:10.525Z,31.00
2018-03-16T23:48:38.017Z,30.50
2018-03-16T23:51:05.459Z,28.67
2018-03-16T23:53:32.905Z,27.83
2018-03-16T23:56:00.395Z,31.48
2018-03-16T23:58:29.345Z,32.75
